Time;durP1;ratioP1;P1;durP2;ratioP2;P2;SDS_P1;SDS_P2;PMS_P1;PMS_P2;Temp;Humidity;BMP_temperature;BMP_pressure;BME280_temperature;BME280_humidity;BME280_pressure;Samples;Min_cycle;Max_cycle;Signal;HPM_P1;HPM_P2
2023/03/14 00:02:16;;;;;;;12.93;0.60;;;9.80;99.90;;;;;;5011263;28;20280;-77
2023/03/14 00:04:42;;;;;;;12.63;0.67;;;9.80;99.90;;;;;;5011637;28;20195;-76
2023/03/14 00:07:09;;;;;;;12.67;0.60;;;9.80;99.90;;;;;;5011360;28;20432;-77
2023/03/14 00:09:35;;;;;;;11.70;0.60;;;9.90;99.90;;;;;;5011693;28;20246;-76
2023/03/14 00:12:02;;;;;;;12.57;0.60;;;9.90;99.90;;;;;;5009603;28;20464;-77
2023/03/14 00:14:28;;;;;;;13.67;0.60;;;9.90;99.90;;;;;;5011636;28;20218;-77
2023/03/14 00:16:54;;;;;;;52.93;10.67;;;9.90;99.90;;;;;;5011220;28;20975;-77
2023/03/14 00:19:19;;;;;;;18.20;0.60;;;9.80;99.90;;;;;;5013746;28;20192;-75
2023/03/14 00:21:45;;;;;;;20.70;0.70;;;9.90;99.90;;;;;;5014937;28;20686;-76
2023/03/14 00:24:10;;;;;;;7.47;0.80;;;9.90;99.90;;;;;;5014764;28;20276;-77
2023/03/14 00:26:36;;;;;;;0.90;0.43;;;9.90;99.90;;;;;;5015143;28;20539;-77
2023/03/14 00:29:01;;;;;;;1.37;0.60;;;9.80;99.90;;;;;;5014473;28;20196;-75
2023/03/14 00:31:27;;;;;;;1.67;0.60;;;9.80;99.90;;;;;;5014662;28;20225;-77
2023/03/14 00:33:53;;;;;;;1.60;0.50;;;9.80;99.90;;;;;;5014520;28;20682;-77
2023/03/14 00:36:20;;;;;;;1.43;0.40;;;9.80;99.90;;;;;;5014871;28;20194;-76
2023/03/14 00:38:48;;;;;;;0.93;0.53;;;9.80;99.90;;;;;;5013498;28;20440;-77
2023/03/14 00:41:16;;;;;;;1.57;0.40;;;9.80;99.90;;;;;;5013998;28;20859;-77
2023/03/14 00:43:42;;;;;;;1.60;0.60;;;9.70;99.90;;;;;;5014757;28;20434;-77
2023/03/14 00:46:08;;;;;;;1.47;0.60;;;9.70;99.90;;;;;;5014243;28;20432;-76
2023/03/14 00:48:33;;;;;;;0.77;0.50;;;9.70;99.90;;;;;;5014660;28;20796;-77
2023/03/14 00:50:59;;;;;;;2.50;0.60;;;9.70;99.90;;;;;;5013658;28;20455;-76
2023/03/14 00:53:25;;;;;;;3.07;0.63;;;9.70;99.90;;;;;;5014385;28;20221;-76
2023/03/14 00:55:50;;;;;;;1.43;0.63;;;9.80;99.90;;;;;;5014310;28;20184;-76
2023/03/14 00:58:17;;;;;;;0.70;0.50;;;9.80;99.90;;;;;;5014387;28;20189;-76
2023/03/14 01:00:44;;;;;;;0.60;0.50;;;9.80;99.90;;;;;;5014530;28;20315;-77
2023/03/14 01:03:11;;;;;;;0.60;0.50;;;9.80;99.90;;;;;;5013838;28;20433;-77
2023/03/14 01:05:36;;;;;;;2.00;0.50;;;9.80;99.90;;;;;;5014327;28;20518;-77
2023/03/14 01:08:03;;;;;;;0.60;0.60;;;9.80;99.90;;;;;;5013904;28;20509;-76
2023/03/14 01:10:28;;;;;;;1.03;0.50;;;9.80;99.90;;;;;;5014097;28;20537;-76
2023/03/14 01:12:54;;;;;;;1.47;0.50;;;9.80;99.90;;;;;;5013394;28;20490;-75
2023/03/14 01:15:20;;;;;;;0.80;0.40;;;9.90;99.90;;;;;;5014042;28;20217;-77
2023/03/14 01:17:46;;;;;;;0.50;0.50;;;9.90;99.90;;;;;;5014165;28;20205;-77
2023/03/14 01:20:13;;;;;;;0.70;0.40;;;9.90;99.90;;;;;;5012273;28;20682;-77
2023/03/14 01:22:42;;;;;;;1.63;0.47;;;9.90;99.90;;;;;;5008747;28;20440;-77
2023/03/14 01:25:12;;;;;;;0.60;0.40;;;9.90;99.90;;;;;;5013496;28;20417;-77
2023/03/14 01:27:37;;;;;;;0.60;0.40;;;10.00;99.90;;;;;;5013879;28;20429;-77
2023/03/14 01:30:04;;;;;;;0.70;0.50;;;9.90;99.90;;;;;;5011182;28;20775;-76
2023/03/14 01:32:29;;;;;;;0.97;0.43;;;9.90;99.90;;;;;;5006106;28;20703;-77
2023/03/14 01:34:55;;;;;;;0.60;0.50;;;9.90;99.90;;;;;;5004177;28;20495;-76
2023/03/14 01:37:20;;;;;;;4.17;0.67;;;9.90;99.90;;;;;;5012550;28;20597;-77
2023/03/14 01:39:49;;;;;;;1.57;0.53;;;9.90;99.90;;;;;;5012395;28;20185;-76
2023/03/14 01:42:15;;;;;;;0.70;0.50;;;9.90;99.90;;;;;;5011657;28;20291;-76
2023/03/14 01:45:36;;;;;;;1.70;0.50;;;9.90;99.90;;;;;;5012353;28;20428;-77
2023/03/14 01:48:01;;;;;;;2.53;0.50;;;9.90;99.90;;;;;;4941454;28;20420;-76
2023/03/14 01:50:27;;;;;;;0.50;0.40;;;9.90;99.90;;;;;;5012039;28;20416;-76
2023/03/14 01:52:52;;;;;;;0.97;0.50;;;9.80;99.90;;;;;;5011813;28;20190;-76
2023/03/14 01:55:23;;;;;;;1.13;0.50;;;9.80;99.90;;;;;;5012237;28;20224;-77
2023/03/14 01:57:58;;;;;;;0.60;0.60;;;9.80;99.90;;;;;;5012306;28;20273;-77
2023/03/14 03:31:07;;;;;;;1.20;0.55;;;9.60;99.90;;;;;;5809586;22;1019158;-75
2023/03/14 03:33:33;;;;;;;1.23;0.60;;;9.60;99.90;;;;;;5009081;28;20839;-76
2023/03/14 03:35:58;;;;;;;0.70;0.50;;;9.60;99.90;;;;;;5027023;28;20439;-76
2023/03/14 03:38:24;;;;;;;3.70;0.60;;;9.60;99.90;;;;;;5015268;28;20187;-78
2023/03/14 03:40:49;;;;;;;0.93;0.60;;;9.60;99.90;;;;;;5016238;28;20240;-75
2023/03/14 03:43:15;;;;;;;2.20;0.50;;;9.60;99.90;;;;;;5021779;28;20288;-76
2023/03/14 03:45:40;;;;;;;0.80;0.60;;;9.50;99.90;;;;;;5017323;28;20547;-75
2023/03/14 03:48:06;;;;;;;6.03;0.80;;;9.50;99.90;;;;;;5027657;28;20224;-74
2023/03/14 03:50:31;;;;;;;1.67;0.80;;;9.50;99.90;;;;;;5019742;28;20270;-76
2023/03/14 03:52:57;;;;;;;1.10;0.60;;;9.50;99.90;;;;;;5027045;28;20251;-77
2023/03/14 03:55:22;;;;;;;1.60;0.73;;;9.50;99.90;;;;;;5022706;28;20209;-77
2023/03/14 03:57:48;;;;;;;1.10;0.60;;;9.50;99.90;;;;;;5031224;28;20181;-77
2023/03/14 04:00:13;;;;;;;2.40;0.67;;;9.50;99.90;;;;;;5029203;28;20184;-77
2023/03/14 04:02:39;;;;;;;5.33;0.60;;;9.40;99.90;;;;;;5018939;28;20303;-77
2023/03/14 04:05:05;;;;;;;1.53;0.50;;;9.40;99.90;;;;;;5027342;28;20184;-77
2023/03/14 04:07:33;;;;;;;1.37;0.50;;;9.40;99.90;;;;;;5011729;28;20194;-77
2023/03/14 04:09:58;;;;;;;2.43;0.50;;;9.30;99.90;;;;;;5019349;28;20603;-77
2023/03/14 04:12:24;;;;;;;1.63;0.70;;;9.30;99.90;;;;;;5022439;28;20438;-77
2023/03/14 04:14:49;;;;;;;3.07;0.60;;;9.30;99.90;;;;;;5024566;28;20203;-77
2023/03/14 04:17:15;;;;;;;5.13;0.83;;;9.30;99.90;;;;;;5029251;28;20185;-77
2023/03/14 04:19:41;;;;;;;3.10;0.70;;;9.30;99.90;;;;;;5023128;28;20178;-78
2023/03/14 04:22:08;;;;;;;3.20;0.70;;;9.30;99.90;;;;;;5022104;28;20198;-77
2023/03/14 04:24:33;;;;;;;1.00;0.83;;;9.30;99.90;;;;;;5012441;28;20412;-77
2023/03/14 04:26:59;;;;;;;3.37;0.87;;;9.30;99.90;;;;;;5012739;28;20501;-77
2023/03/14 04:29:24;;;;;;;1.00;0.60;;;9.30;99.90;;;;;;5024074;28;20185;-77
2023/03/14 04:31:49;;;;;;;5.23;0.80;;;9.30;99.90;;;;;;5027162;28;20296;-78
2023/03/14 04:34:15;;;;;;;2.10;0.80;;;9.20;99.90;;;;;;5014328;28;20206;-77
2023/03/14 04:36:41;;;;;;;2.30;0.57;;;9.20;99.90;;;;;;5018540;28;20692;-77
2023/03/14 04:39:06;;;;;;;4.57;0.83;;;9.20;99.90;;;;;;5025960;28;20179;-76
2023/03/14 04:41:32;;;;;;;2.93;0.63;;;9.10;99.90;;;;;;5020058;28;20209;-77
2023/03/14 04:43:57;;;;;;;2.47;1.10;;;9.20;99.90;;;;;;5019666;28;20185;-77
2023/03/14 04:46:23;;;;;;;1.27;0.80;;;9.20;99.90;;;;;;5017591;28;20193;-77
2023/03/14 04:48:48;;;;;;;4.00;0.93;;;9.10;99.90;;;;;;5026067;28;20645;-77
2023/03/14 04:51:14;;;;;;;4.47;0.80;;;9.20;99.90;;;;;;5021477;28;20343;-77
2023/03/14 04:53:39;;;;;;;4.80;1.03;;;9.20;99.90;;;;;;5019507;28;20210;-77
2023/03/14 04:56:05;;;;;;;2.13;0.63;;;9.10;99.90;;;;;;5018948;28;20242;-77
2023/03/14 04:58:31;;;;;;;1.90;0.80;;;9.10;99.90;;;;;;5022971;28;20185;-77
2023/03/14 05:01:03;;;;;;;2.93;0.80;;;9.20;99.90;;;;;;5022821;28;20446;-77
2023/03/14 05:03:28;;;;;;;3.60;1.03;;;9.20;99.90;;;;;;5006354;28;20565;-77
2023/03/14 05:05:54;;;;;;;2.43;0.67;;;9.20;99.90;;;;;;5024297;28;20436;-77
2023/03/14 05:08:20;;;;;;;2.90;0.97;;;9.20;99.90;;;;;;5021374;28;20240;-77
2023/03/14 05:10:55;;;;;;;2.70;1.10;;;9.20;99.90;;;;;;5022533;28;20429;-77
2023/03/14 05:13:22;;;;;;;2.70;0.70;;;9.20;99.90;;;;;;5024448;28;20213;-75
2023/03/14 05:15:48;;;;;;;6.83;0.73;;;9.10;99.90;;;;;;5019872;28;20420;-74
2023/03/14 05:18:13;;;;;;;3.53;0.60;;;9.10;99.90;;;;;;5028967;28;20431;-75
2023/03/14 05:20:39;;;;;;;3.40;1.30;;;9.10;99.90;;;;;;5022186;28;20479;-75
2023/03/14 05:23:04;;;;;;;3.07;0.80;;;9.10;99.90;;;;;;5021940;28;20260;-73
2023/03/14 05:25:30;;;;;;;3.83;1.07;;;9.10;99.90;;;;;;5028082;28;20186;-75
2023/03/14 05:27:55;;;;;;;0.97;0.93;;;9.10;99.90;;;;;;5015961;28;20197;-73
2023/03/14 05:30:21;;;;;;;5.07;0.67;;;9.10;99.90;;;;;;5022932;28;20197;-72
2023/03/14 05:32:47;;;;;;;1.60;0.63;;;9.10;99.90;;;;;;5021846;28;20689;-73
2023/03/14 05:35:13;;;;;;;2.97;0.77;;;9.10;99.90;;;;;;5022330;28;20213;-73
2023/03/14 05:37:38;;;;;;;1.83;0.67;;;9.10;99.90;;;;;;5023858;28;20428;-73
2023/03/14 05:40:06;;;;;;;1.53;0.60;;;9.10;99.90;;;;;;5025014;28;20189;-73
2023/03/14 05:42:32;;;;;;;5.47;0.87;;;9.10;99.90;;;;;;5021626;28;20220;-73
2023/03/14 05:44:57;;;;;;;2.33;0.57;;;9.10;99.90;;;;;;5021639;28;20525;-73
2023/03/14 05:47:23;;;;;;;3.90;0.80;;;9.10;99.90;;;;;;5023646;28;20499;-73
2023/03/14 05:49:48;;;;;;;1.70;0.50;;;9.10;99.90;;;;;;5023777;28;20259;-73
2023/03/14 05:52:14;;;;;;;1.60;0.53;;;9.20;99.90;;;;;;5023510;28;20216;-72
2023/03/14 05:54:39;;;;;;;5.40;0.73;;;9.10;99.90;;;;;;5021566;28;20262;-72
2023/03/14 05:57:05;;;;;;;2.07;0.60;;;9.10;99.90;;;;;;5021195;28;20655;-73
2023/03/14 05:59:31;;;;;;;1.37;0.60;;;9.20;99.90;;;;;;5023556;28;20265;-73
2023/03/14 06:01:56;;;;;;;2.00;0.50;;;9.20;99.90;;;;;;5024473;28;21086;-73
2023/03/14 06:04:22;;;;;;;3.00;0.60;;;9.20;99.90;;;;;;5022620;28;20192;-73
2023/03/14 06:06:47;;;;;;;2.40;0.60;;;9.30;99.90;;;;;;5021382;28;20190;-73
2023/03/14 06:09:13;;;;;;;2.27;0.70;;;9.30;99.90;;;;;;5021768;28;20560;-72
2023/03/14 06:11:38;;;;;;;0.87;0.63;;;9.30;99.90;;;;;;5024481;28;20280;-72
2023/03/14 06:14:04;;;;;;;3.57;1.10;;;9.40;99.90;;;;;;5024356;28;20213;-74
2023/03/14 06:16:31;;;;;;;10.53;0.80;;;9.30;99.90;;;;;;5021106;28;20539;-73
2023/03/14 06:18:57;;;;;;;2.20;0.80;;;9.40;99.90;;;;;;5019141;28;20174;-72
2023/03/14 06:21:23;;;;;;;1.90;0.83;;;9.40;99.90;;;;;;5022598;28;20523;-74
2023/03/14 06:23:48;;;;;;;5.23;0.80;;;9.40;99.90;;;;;;5024446;28;20255;-73
2023/03/14 06:26:14;;;;;;;3.50;0.63;;;9.40;99.90;;;;;;5023428;28;20724;-73
2023/03/14 06:28:40;;;;;;;5.53;0.80;;;9.50;99.90;;;;;;5021000;28;20174;-72
2023/03/14 06:31:06;;;;;;;2.17;0.67;;;9.60;99.90;;;;;;5017546;28;20723;-72
2023/03/14 06:33:31;;;;;;;2.30;1.33;;;9.70;99.90;;;;;;5009046;28;20189;-71
2023/03/14 06:35:57;;;;;;;2.20;1.10;;;9.80;99.90;;;;;;5008814;28;20417;-72
2023/03/14 06:38:22;;;;;;;3.53;1.60;;;9.90;99.90;;;;;;5013602;28;20214;-72
2023/03/14 06:40:48;;;;;;;3.47;1.50;;;9.90;99.90;;;;;;5023262;28;20198;-72
2023/03/14 06:43:13;;;;;;;1.73;1.17;;;10.00;99.90;;;;;;5021455;28;20205;-72
2023/03/14 06:45:39;;;;;;;1.20;0.83;;;10.20;99.90;;;;;;5020042;28;20647;-73
2023/03/14 06:48:04;;;;;;;4.33;1.10;;;10.50;99.90;;;;;;5019974;28;20179;-72
2023/03/14 06:50:30;;;;;;;2.47;0.80;;;11.30;99.90;;;;;;5023050;28;20272;-73
2023/03/14 06:52:56;;;;;;;1.27;0.63;;;12.60;99.90;;;;;;5023648;28;20182;-71
2023/03/14 06:55:21;;;;;;;3.13;0.53;;;14.30;99.90;;;;;;5015555;28;20236;-74
2023/03/14 06:57:47;;;;;;;2.00;0.50;;;15.50;99.90;;;;;;5027110;28;20175;-73
2023/03/14 07:00:13;;;;;;;0.70;0.50;;;16.30;99.90;;;;;;5020210;28;20293;-73
2023/03/14 07:02:39;;;;;;;1.00;0.50;;;17.10;99.90;;;;;;5020261;28;20198;-73
2023/03/14 07:05:05;;;;;;;1.80;0.50;;;17.50;99.90;;;;;;5020196;28;20422;-74
2023/03/14 07:07:31;;;;;;;1.77;0.50;;;16.90;99.90;;;;;;5022747;28;20421;-74
2023/03/14 07:09:56;;;;;;;2.37;0.63;;;15.60;99.90;;;;;;5017271;28;20947;-73
2023/03/14 07:12:22;;;;;;;4.10;0.53;;;15.20;99.90;;;;;;5021166;28;20720;-72
2023/03/14 07:14:47;;;;;;;1.83;0.50;;;15.90;99.90;;;;;;5023470;28;20198;-73
2023/03/14 07:17:13;;;;;;;1.43;0.40;;;16.80;99.90;;;;;;5022597;28;20862;-73
2023/03/14 07:19:39;;;;;;;0.70;0.57;;;17.50;99.90;;;;;;5020072;28;20175;-74
2023/03/14 07:22:05;;;;;;;4.07;0.50;;;18.50;99.90;;;;;;5019635;28;20197;-74
2023/03/14 07:24:30;;;;;;;0.63;0.60;;;19.50;99.90;;;;;;5022235;28;20186;-74
2023/03/14 07:26:56;;;;;;;0.70;0.40;;;20.50;99.90;;;;;;5023014;28;20761;-74
2023/03/14 07:29:21;;;;;;;1.43;0.40;;;20.10;99.90;;;;;;5014403;28;20343;-75
2023/03/14 07:31:47;;;;;;;2.50;0.50;;;19.50;99.90;;;;;;5022303;28;20367;-75
2023/03/14 07:34:12;;;;;;;1.57;0.60;;;19.30;99.90;;;;;;5022759;28;20237;-74
2023/03/14 07:36:38;;;;;;;0.80;0.50;;;19.00;99.90;;;;;;5019715;28;20170;-73
2023/03/14 07:39:04;;;;;;;2.60;0.57;;;18.90;99.90;;;;;;5019565;28;20182;-73
2023/03/14 07:41:30;;;;;;;1.57;0.50;;;18.50;99.90;;;;;;5019114;28;20208;-74
2023/03/14 07:43:56;;;;;;;1.13;0.40;;;18.30;99.90;;;;;;5019376;28;20425;-74
2023/03/14 07:46:21;;;;;;;0.70;0.40;;;18.10;99.90;;;;;;5020526;28;20951;-73
2023/03/14 07:48:47;;;;;;;0.70;0.40;;;18.20;99.90;;;;;;5022905;28;20178;-75
2023/03/14 07:51:12;;;;;;;1.10;0.50;;;18.00;99.90;;;;;;5022355;28;20209;-73
2023/03/14 07:53:39;;;;;;;1.63;0.40;;;17.80;99.90;;;;;;5019325;28;20173;-75
2023/03/14 07:56:05;;;;;;;1.57;0.40;;;17.30;99.90;;;;;;5017972;28;20233;-76
2023/03/14 07:58:30;;;;;;;1.23;0.40;;;17.20;99.90;;;;;;5021475;28;20433;-75
2023/03/14 08:00:58;;;;;;;2.00;0.43;;;17.00;99.90;;;;;;5022219;28;20957;-75
2023/03/14 08:03:24;;;;;;;1.77;0.60;;;16.90;99.90;;;;;;5021169;28;20178;-75
2023/03/14 08:05:50;;;;;;;1.93;0.60;;;17.20;99.90;;;;;;5019419;28;20413;-75
2023/03/14 08:08:16;;;;;;;1.43;0.50;;;17.20;99.90;;;;;;5019380;28;20236;-74
2023/03/14 08:10:42;;;;;;;0.60;0.40;;;17.30;99.90;;;;;;5022492;28;20441;-76
2023/03/14 08:13:09;;;;;;;0.90;0.47;;;17.40;99.90;;;;;;5022209;28;20444;-75
2023/03/14 08:15:36;;;;;;;2.93;0.53;;;17.40;99.90;;;;;;5019569;28;20210;-75
2023/03/14 08:18:02;;;;;;;1.27;0.40;;;17.30;99.90;;;;;;5025212;28;20432;-75
2023/03/14 08:20:29;;;;;;;1.70;0.47;;;17.40;99.90;;;;;;5020705;28;20417;-75
2023/03/14 08:22:58;;;;;;;2.00;0.50;;;17.60;99.90;;;;;;5024275;28;20566;-73
2023/03/14 08:25:25;;;;;;;1.13;0.50;;;17.70;99.90;;;;;;5021397;28;20459;-75
2023/03/14 08:27:51;;;;;;;0.60;0.40;;;18.00;99.90;;;;;;5019170;28;20445;-74
2023/03/14 08:30:18;;;;;;;0.60;0.30;;;18.00;99.90;;;;;;5019126;28;20514;-74
2023/03/14 08:32:44;;;;;;;1.27;0.40;;;18.10;99.90;;;;;;5018873;28;20938;-74
2023/03/14 08:35:10;;;;;;;2.10;0.47;;;17.60;99.90;;;;;;5019038;28;20476;-74
2023/03/14 08:37:37;;;;;;;3.50;0.57;;;16.90;99.90;;;;;;5021737;28;20202;-73
2023/03/14 08:40:06;;;;;;;1.93;0.57;;;16.00;99.90;;;;;;5022742;28;20404;-74
2023/03/14 08:42:33;;;;;;;0.83;0.53;;;15.70;99.90;;;;;;5025883;28;20444;-73
2023/03/14 08:44:58;;;;;;;1.57;0.53;;;15.50;99.90;;;;;;5026289;28;20929;-74
2023/03/14 08:47:24;;;;;;;0.60;0.47;;;15.20;99.90;;;;;;5025008;28;20432;-74
2023/03/14 08:49:50;;;;;;;1.63;0.60;;;14.90;99.90;;;;;;5022793;28;20175;-74
2023/03/14 08:52:16;;;;;;;2.27;0.40;;;14.80;99.90;;;;;;5022334;28;20449;-74
2023/03/14 08:54:43;;;;;;;1.57;0.40;;;15.50;99.90;;;;;;5025642;28;20210;-75
2023/03/14 08:57:09;;;;;;;0.80;0.40;;;16.00;99.90;;;;;;5025955;28;20248;-75
2023/03/14 08:59:34;;;;;;;0.70;0.50;;;16.40;99.90;;;;;;5025854;28;20926;-74
2023/03/14 09:02:03;;;;;;;0.70;0.43;;;16.70;99.90;;;;;;5025505;28;20194;-75
2023/03/14 09:04:29;;;;;;;1.20;0.50;;;16.60;99.90;;;;;;5025634;28;20179;-74
2023/03/14 09:06:57;;;;;;;0.60;0.40;;;16.40;99.90;;;;;;5025651;28;20431;-74
2023/03/14 09:09:23;;;;;;;1.80;0.50;;;16.00;99.90;;;;;;5025011;28;20417;-74
2023/03/14 09:11:49;;;;;;;0.60;0.40;;;15.60;99.90;;;;;;5021947;28;20445;-74
2023/03/14 09:14:14;;;;;;;1.77;0.40;;;15.40;99.90;;;;;;5022377;28;20317;-75
2023/03/14 09:16:40;;;;;;;1.27;0.40;;;15.60;99.90;;;;;;5022288;28;20182;-73
2023/03/14 09:19:06;;;;;;;1.27;0.40;;;15.50;99.90;;;;;;5022198;28;20183;-73
2023/03/14 09:21:31;;;;;;;0.60;0.47;;;15.20;99.90;;;;;;5023267;28;20225;-74
2023/03/14 09:23:57;;;;;;;3.30;0.60;;;15.20;99.90;;;;;;5025484;28;20185;-72
2023/03/14 09:26:22;;;;;;;0.60;0.40;;;15.20;99.90;;;;;;5025108;28;20186;-73
2023/03/14 09:28:48;;;;;;;0.80;0.40;;;15.40;99.90;;;;;;5026213;28;20265;-74
2023/03/14 09:31:14;;;;;;;1.17;0.70;;;15.00;99.90;;;;;;5025676;28;20245;-74
2023/03/14 09:33:40;;;;;;;0.90;0.50;;;15.00;99.90;;;;;;5022750;28;20857;-74
2023/03/14 09:36:07;;;;;;;2.50;1.33;;;14.60;99.90;;;;;;5021923;28;20570;-74
2023/03/14 09:38:33;;;;;;;2.50;0.80;;;14.50;99.90;;;;;;5022031;28;20194;-74
2023/03/14 09:41:01;;;;;;;0.60;0.40;;;14.40;99.90;;;;;;5022079;28;20436;-73
2023/03/14 09:43:29;;;;;;;2.10;0.50;;;14.40;99.90;;;;;;5022558;28;20926;-74
2023/03/14 09:45:57;;;;;;;0.80;0.40;;;14.60;99.90;;;;;;5033155;28;20436;-73
2023/03/14 09:48:27;;;;;;;0.70;0.40;;;14.70;99.90;;;;;;5025045;28;20417;-73
2023/03/14 09:50:59;;;;;;;1.87;0.50;;;14.70;99.90;;;;;;5025421;28;20465;-73
2023/03/14 09:53:34;;;;;;;1.13;0.40;;;14.90;99.90;;;;;;5024507;28;20427;-74
2023/03/14 09:55:59;;;;;;;0.60;0.40;;;14.90;99.90;;;;;;5021621;28;20425;-74
2023/03/14 09:58:26;;;;;;;0.60;0.40;;;14.90;99.90;;;;;;5022058;28;20406;-73
2023/03/14 10:00:55;;;;;;;0.70;0.47;;;14.90;99.90;;;;;;5024395;28;20739;-73
2023/03/14 10:03:33;;;;;;;0.90;0.50;;;14.80;99.90;;;;;;5024864;28;20474;-74
2023/03/14 10:05:59;;;;;;;1.97;0.40;;;15.00;99.90;;;;;;5015122;28;20787;-74
2023/03/14 10:08:25;;;;;;;0.60;0.40;;;15.80;99.90;;;;;;5013723;28;20551;-73
2023/03/14 10:10:50;;;;;;;1.37;0.50;;;16.50;99.90;;;;;;5024930;28;20661;-72
2023/03/14 10:13:25;;;;;;;1.30;0.40;;;16.70;99.90;;;;;;5025095;28;20174;-74
2023/03/14 10:15:54;;;;;;;0.70;0.40;;;17.10;99.90;;;;;;5013674;28;20208;-74
2023/03/14 10:18:21;;;;;;;1.00;0.60;;;17.10;99.90;;;;;;5029057;28;20412;-73
2023/03/14 10:20:49;;;;;;;4.40;0.57;;;17.20;99.90;;;;;;5024078;28;20433;-74
2023/03/14 10:23:17;;;;;;;2.30;0.40;;;17.00;99.90;;;;;;5024328;28;20409;-74
2023/03/14 10:25:46;;;;;;;0.50;0.30;;;17.00;99.90;;;;;;5016184;28;20512;-74
2023/03/14 10:28:30;;;;;;;0.77;0.47;;;17.00;99.90;;;;;;5024323;28;20429;-74
2023/03/14 10:30:56;;;;;;;0.60;0.50;;;16.80;99.90;;;;;;5013356;28;20444;-73
2023/03/14 10:33:27;;;;;;;0.67;0.30;;;16.40;99.90;;;;;;5021104;28;20426;-75
2023/03/14 10:36:04;;;;;;;0.60;0.40;;;16.10;99.90;;;;;;5013377;28;20513;-73
2023/03/14 10:38:35;;;;;;;0.60;0.40;;;15.40;99.90;;;;;;5021485;28;20413;-74
2023/03/14 10:41:02;;;;;;;0.60;0.40;;;15.20;99.90;;;;;;5023687;28;20439;-72
2023/03/14 10:43:33;;;;;;;1.33;0.60;;;15.30;99.90;;;;;;5023572;28;20427;-74
2023/03/14 10:46:06;;;;;;;0.50;0.40;;;15.50;99.90;;;;;;5025132;28;20848;-73
2023/03/14 10:48:37;;;;;;;2.40;0.40;;;15.50;99.90;;;;;;5015758;28;20968;-74
2023/03/14 10:51:08;;;;;;;0.80;0.40;;;15.40;99.90;;;;;;5031443;28;20955;-73
2023/03/14 10:53:41;;;;;;;0.60;0.40;;;15.10;99.90;;;;;;5030477;28;20413;-74
2023/03/14 10:56:10;;;;;;;0.57;0.40;;;14.90;99.90;;;;;;5026259;28;20417;-73
2023/03/14 10:58:41;;;;;;;0.60;0.40;;;14.50;99.90;;;;;;5031605;28;20416;-74
2023/03/14 11:01:10;;;;;;;0.60;0.40;;;14.30;99.90;;;;;;5023320;28;20446;-72
2023/03/14 11:03:38;;;;;;;1.10;0.40;;;14.00;99.90;;;;;;5022738;28;20417;-74
2023/03/14 11:06:11;;;;;;;1.57;0.40;;;13.90;99.90;;;;;;5023728;28;20420;-74
2023/03/14 11:08:50;;;;;;;0.80;0.50;;;13.80;99.90;;;;;;5031737;28;20507;-73
2023/03/14 11:11:23;;;;;;;0.80;0.40;;;13.60;99.90;;;;;;5031433;28;20436;-73
2023/03/14 11:14:00;;;;;;;1.40;0.40;;;13.40;99.90;;;;;;5031384;28;20888;-72
2023/03/14 11:16:47;;;;;;;2.23;0.40;;;13.30;99.90;;;;;;5031554;28;20760;-73
2023/03/14 11:19:19;;;;;;;0.77;0.40;;;13.20;99.90;;;;;;5006962;28;20504;-73
2023/03/14 11:22:14;;;;;;;1.87;0.47;;;13.10;99.90;;;;;;5011316;28;20440;-74
2023/03/14 11:24:54;;;;;;;0.70;0.40;;;12.70;99.90;;;;;;5003499;28;20425;-73
2023/03/14 11:27:42;;;;;;;0.70;0.40;;;12.50;99.90;;;;;;5011815;28;20421;-73
2023/03/14 11:30:18;;;;;;;0.70;0.40;;;12.20;99.90;;;;;;5005978;28;20464;-73
2023/03/14 11:33:02;;;;;;;0.70;0.40;;;11.90;99.90;;;;;;5011124;28;20885;-73
2023/03/14 11:35:36;;;;;;;1.07;0.40;;;11.70;99.90;;;;;;5011361;28;21040;-74
2023/03/14 11:38:10;;;;;;;0.90;0.40;;;11.60;99.90;;;;;;5031047;28;20928;-74
2023/03/14 11:40:37;;;;;;;1.37;0.77;;;11.40;99.90;;;;;;5031018;28;20505;-73
2023/03/14 11:43:18;;;;;;;1.20;0.40;;;11.50;99.90;;;;;;5031171;28;20423;-73
2023/03/14 11:45:45;;;;;;;1.17;0.40;;;11.40;99.90;;;;;;5031639;28;20508;-72
2023/03/14 11:48:44;;;;;;;1.00;0.40;;;11.40;99.90;;;;;;5029710;28;20426;-72
2023/03/14 11:51:22;;;;;;;0.70;0.33;;;11.40;99.90;;;;;;4993737;28;20449;-72
2023/03/14 11:53:56;;;;;;;1.10;0.40;;;11.50;99.90;;;;;;5030704;28;20442;-72
2023/03/14 11:56:41;;;;;;;0.70;0.40;;;11.50;99.90;;;;;;5031119;28;20430;-72
2023/03/14 11:59:19;;;;;;;0.70;0.40;;;11.50;99.90;;;;;;5030927;28;20419;-71
2023/03/14 12:01:50;;;;;;;0.70;0.40;;;11.30;99.90;;;;;;5030397;28;20439;-72
2023/03/14 12:04:33;;;;;;;0.60;0.40;;;11.20;99.90;;;;;;5030914;28;20483;-72
2023/03/14 12:07:06;;;;;;;0.60;0.30;;;11.40;99.90;;;;;;5030702;28;20474;-73
2023/03/14 12:09:32;;;;;;;1.43;0.57;;;11.60;99.90;;;;;;5030737;28;20503;-72
2023/03/14 12:12:02;;;;;;;0.70;0.40;;;11.90;99.90;;;;;;5029259;28;20520;-72
2023/03/14 12:14:31;;;;;;;1.73;0.40;;;12.20;99.90;;;;;;5030658;28;20209;-71
2023/03/14 12:17:18;;;;;;;0.70;0.40;;;12.20;99.90;;;;;;5003856;28;20407;-72
2023/03/14 12:19:44;;;;;;;1.50;0.40;;;12.10;99.90;;;;;;5009629;28;20394;-74
2023/03/14 12:22:33;;;;;;;0.87;0.40;;;11.90;99.90;;;;;;5010626;28;20221;-73
2023/03/14 12:25:04;;;;;;;1.20;0.50;;;11.70;99.90;;;;;;5009082;28;20193;-72
2023/03/14 12:27:43;;;;;;;0.70;0.40;;;11.50;99.90;;;;;;5007105;28;20765;-74
2023/03/14 12:30:27;;;;;;;0.80;0.43;;;11.60;99.90;;;;;;5012471;28;20421;-73
2023/03/14 12:33:17;;;;;;;0.80;0.50;;;11.90;99.90;;;;;;5009106;28;20451;-72
2023/03/14 12:35:52;;;;;;;1.40;0.60;;;12.00;99.90;;;;;;5011589;28;20474;-73
2023/03/14 12:38:35;;;;;;;0.67;0.40;;;12.00;99.90;;;;;;5015373;28;20449;-71
2023/03/14 12:41:21;;;;;;;3.80;0.50;;;11.70;99.90;;;;;;5011319;28;20437;-73
2023/03/14 12:43:46;;;;;;;2.30;0.60;;;11.40;99.90;;;;;;5010493;28;20410;-72
2023/03/14 12:46:18;;;;;;;6.57;0.77;;;11.50;99.90;;;;;;5009589;28;20521;-73
2023/03/14 12:48:46;;;;;;;2.70;0.60;;;11.60;99.90;;;;;;5009545;28;20174;-72
2023/03/14 12:51:17;;;;;;;2.90;0.67;;;11.60;99.90;;;;;;5009152;28;20880;-73
2023/03/14 12:53:55;;;;;;;0.70;0.50;;;11.40;99.90;;;;;;5010335;28;20422;-73
2023/03/14 12:56:27;;;;;;;2.33;0.70;;;11.60;99.90;;;;;;5010844;28;20480;-73
2023/03/14 12:58:58;;;;;;;0.90;0.50;;;11.60;99.90;;;;;;5010287;28;20421;-73
2023/03/14 13:01:24;;;;;;;5.00;0.50;;;11.70;99.90;;;;;;5010431;28;20437;-73
2023/03/14 13:04:09;;;;;;;1.00;0.70;;;11.70;99.90;;;;;;5009266;28;20428;-73
2023/03/14 13:06:59;;;;;;;1.20;0.50;;;11.80;99.90;;;;;;5010506;28;20190;-72
2023/03/14 13:09:33;;;;;;;2.50;0.60;;;11.70;99.90;;;;;;5030520;28;20420;-72
2023/03/14 13:12:03;;;;;;;1.73;0.70;;;11.40;99.90;;;;;;5029834;28;20437;-73
2023/03/14 13:14:32;;;;;;;2.10;0.80;;;11.20;99.90;;;;;;5030567;28;20976;-72
2023/03/14 13:17:02;;;;;;;2.40;0.63;;;10.90;99.90;;;;;;5032176;28;20423;-71
2023/03/14 13:19:31;;;;;;;2.70;0.60;;;10.70;99.90;;;;;;5031592;28;20518;-73
2023/03/14 13:22:02;;;;;;;2.27;0.80;;;10.70;99.90;;;;;;5029852;28;20443;-73
2023/03/14 13:24:28;;;;;;;1.10;0.50;;;10.70;99.90;;;;;;5030535;28;20423;-73
2023/03/14 13:26:55;;;;;;;1.47;0.60;;;10.60;99.90;;;;;;5031705;28;20938;-73
2023/03/14 13:29:23;;;;;;;2.20;0.80;;;10.60;99.90;;;;;;5034068;28;20185;-72
2023/03/14 13:31:51;;;;;;;2.23;0.87;;;10.80;99.90;;;;;;5033438;28;21190;-73
2023/03/14 13:34:16;;;;;;;1.87;0.40;;;10.80;99.90;;;;;;5033685;28;20479;-73
2023/03/14 13:36:42;;;;;;;1.70;0.70;;;10.70;99.90;;;;;;5033782;28;20420;-73
2023/03/14 13:39:14;;;;;;;1.00;0.50;;;10.70;99.90;;;;;;5033836;28;20190;-72
2023/03/14 13:41:43;;;;;;;1.73;0.63;;;10.70;99.90;;;;;;5033188;28;20202;-73
2023/03/14 13:44:17;;;;;;;1.67;0.50;;;10.50;99.90;;;;;;5033601;28;20421;-72
2023/03/14 13:46:43;;;;;;;2.13;0.60;;;10.50;99.90;;;;;;5033521;28;20764;-73
2023/03/14 13:49:21;;;;;;;2.50;0.60;;;10.40;99.90;;;;;;5032367;28;20463;-72
2023/03/14 13:51:47;;;;;;;3.93;0.70;;;10.40;99.90;;;;;;5033127;28;20605;-72
2023/03/14 13:54:15;;;;;;;1.60;0.63;;;10.40;99.90;;;;;;5028472;28;20564;-73
2023/03/14 13:56:40;;;;;;;3.37;0.60;;;10.40;99.90;;;;;;5021580;28;20200;-72
2023/03/14 13:59:31;;;;;;;1.10;0.50;;;10.40;99.90;;;;;;5026030;28;20515;-72
2023/03/14 14:01:59;;;;;;;1.27;0.60;;;10.20;99.90;;;;;;5013687;28;20209;-73
2023/03/14 14:04:26;;;;;;;2.43;0.60;;;10.00;99.90;;;;;;5020378;28;20438;-73
2023/03/14 14:06:59;;;;;;;3.43;0.60;;;10.00;99.90;;;;;;5010453;28;20469;-74
2023/03/14 14:09:27;;;;;;;2.30;0.60;;;10.00;99.90;;;;;;5012428;28;20452;-73
2023/03/14 14:12:23;;;;;;;1.70;0.70;;;10.00;99.90;;;;;;5010224;28;20461;-72
2023/03/14 14:15:19;;;;;;;2.27;0.63;;;10.10;99.90;;;;;;5012310;28;20465;-73
2023/03/14 14:17:52;;;;;;;2.50;0.60;;;10.00;99.90;;;;;;5009567;28;20610;-73
2023/03/14 14:20:31;;;;;;;1.43;0.50;;;9.80;99.90;;;;;;5012416;28;20945;-74
2023/03/14 14:22:57;;;;;;;2.20;0.60;;;9.70;99.90;;;;;;5011169;28;20547;-73
2023/03/14 14:25:23;;;;;;;1.43;0.50;;;9.80;99.90;;;;;;5012508;28;20452;-73
2023/03/14 14:27:50;;;;;;;1.80;0.60;;;9.80;99.90;;;;;;5010267;28;20476;-73
2023/03/14 14:30:18;;;;;;;1.17;0.57;;;9.80;99.90;;;;;;5012110;28;20204;-73